sensor_id;sensor_type;location;lat;lon;timestamp;P1;durP1;ratioP1;P2;durP2;ratioP2
6029;SDS011;3043;42.682;23.376;2022-12-16T00:02:09;208.37;;;118.50;;
6029;SDS011;3043;42.682;23.376;2022-12-16T00:04:35;218.70;;;120.10;;
6029;SDS011;3043;42.682;23.376;2022-12-16T00:07:00;234.50;;;128.13;;
6029;SDS011;3043;42.682;23.376;2022-12-16T00:09:25;249.63;;;136.63;;
6029;SDS011;3043;42.682;23.376;2022-12-16T00:11:51;260.90;;;143.17;;
6029;SDS011;3043;42.682;23.376;2022-12-16T00:14:16;233.97;;;132.77;;
6029;SDS011;3043;42.682;23.376;2022-12-16T00:16:42;210.10;;;119.83;;
6029;SDS011;3043;42.682;23.376;2022-12-16T00:19:07;227.30;;;119.60;;
6029;SDS011;3043;42.682;23.376;2022-12-16T00:21:32;239.43;;;127.77;;
6029;SDS011;3043;42.682;23.376;2022-12-16T00:23:58;227.53;;;119.67;;
6029;SDS011;3043;42.682;23.376;2022-12-16T00:26:23;209.13;;;118.40;;
6029;SDS011;3043;42.682;23.376;2022-12-16T00:28:49;212.27;;;113.63;;
6029;SDS011;3043;42.682;23.376;2022-12-16T00:31:16;224.40;;;120.10;;
6029;SDS011;3043;42.682;23.376;2022-12-16T00:33:41;225.30;;;121.30;;
6029;SDS011;3043;42.682;23.376;2022-12-16T00:36:07;217.73;;;121.30;;
6029;SDS011;3043;42.682;23.376;2022-12-16T00:38:33;228.53;;;124.13;;
6029;SDS011;3043;42.682;23.376;2022-12-16T00:40:58;220.93;;;120.33;;
6029;SDS011;3043;42.682;23.376;2022-12-16T00:43:24;249.17;;;132.10;;
6029;SDS011;3043;42.682;23.376;2022-12-16T00:45:49;237.67;;;131.47;;
6029;SDS011;3043;42.682;23.376;2022-12-16T00:48:15;318.57;;;157.23;;
6029;SDS011;3043;42.682;23.376;2022-12-16T00:50:43;338.13;;;178.00;;
6029;SDS011;3043;42.682;23.376;2022-12-16T00:53:12;292.37;;;147.50;;
6029;SDS011;3043;42.682;23.376;2022-12-16T00:55:38;278.50;;;133.07;;
6029;SDS011;3043;42.682;23.376;2022-12-16T00:58:03;259.43;;;124.30;;
6029;SDS011;3043;42.682;23.376;2022-12-16T01:00:29;243.60;;;121.73;;
6029;SDS011;3043;42.682;23.376;2022-12-16T01:02:54;228.37;;;116.53;;
6029;SDS011;3043;42.682;23.376;2022-12-16T01:05:20;201.67;;;104.87;;
6029;SDS011;3043;42.682;23.376;2022-12-16T01:07:51;207.13;;;101.70;;
6029;SDS011;3043;42.682;23.376;2022-12-16T01:10:17;187.40;;;95.60;;
6029;SDS011;3043;42.682;23.376;2022-12-16T01:12:43;190.43;;;94.07;;
6029;SDS011;3043;42.682;23.376;2022-12-16T01:15:09;203.10;;;97.03;;
6029;SDS011;3043;42.682;23.376;2022-12-16T01:17:37;225.30;;;96.17;;
6029;SDS011;3043;42.682;23.376;2022-12-16T01:20:03;217.97;;;94.87;;
6029;SDS011;3043;42.682;23.376;2022-12-16T01:22:30;210.80;;;93.20;;
6029;SDS011;3043;42.682;23.376;2022-12-16T01:24:56;186.80;;;87.37;;
6029;SDS011;3043;42.682;23.376;2022-12-16T01:27:23;183.80;;;87.70;;
6029;SDS011;3043;42.682;23.376;2022-12-16T01:29:48;297.23;;;103.93;;
6029;SDS011;3043;42.682;23.376;2022-12-16T01:32:14;204.83;;;92.80;;
6029;SDS011;3043;42.682;23.376;2022-12-16T01:34:40;275.83;;;101.00;;
6029;SDS011;3043;42.682;23.376;2022-12-16T01:37:09;245.10;;;103.47;;
6029;SDS011;3043;42.682;23.376;2022-12-16T01:39:36;187.57;;;93.00;;
6029;SDS011;3043;42.682;23.376;2022-12-16T01:42:02;213.63;;;98.13;;
6029;SDS011;3043;42.682;23.376;2022-12-16T01:44:27;218.53;;;98.83;;
6029;SDS011;3043;42.682;23.376;2022-12-16T01:46:57;224.90;;;100.90;;
6029;SDS011;3043;42.682;23.376;2022-12-16T01:52:32;220.00;;;103.73;;
6029;SDS011;3043;42.682;23.376;2022-12-16T01:57:51;242.27;;;107.57;;
6029;SDS011;3043;42.682;23.376;2022-12-16T02:00:20;211.10;;;99.07;;
6029;SDS011;3043;42.682;23.376;2022-12-16T02:02:46;207.67;;;98.93;;
6029;SDS011;3043;42.682;23.376;2022-12-16T02:05:13;254.07;;;103.70;;
6029;SDS011;3043;42.682;23.376;2022-12-16T02:07:57;191.87;;;94.60;;
6029;SDS011;3043;42.682;23.376;2022-12-16T02:16:02;185.67;;;93.07;;
6029;SDS011;3043;42.682;23.376;2022-12-16T02:21:22;209.10;;;96.97;;
6029;SDS011;3043;42.682;23.376;2022-12-16T02:32:25;236.63;;;100.93;;
6029;SDS011;3043;42.682;23.376;2022-12-16T02:37:43;194.80;;;94.43;;
6029;SDS011;3043;42.682;23.376;2022-12-16T02:42:57;197.93;;;86.20;;
6029;SDS011;3043;42.682;23.376;2022-12-16T02:45:28;231.87;;;91.73;;
6029;SDS011;3043;42.682;23.376;2022-12-16T02:47:56;221.23;;;91.80;;
6029;SDS011;3043;42.682;23.376;2022-12-16T02:50:22;207.63;;;87.83;;
6029;SDS011;3043;42.682;23.376;2022-12-16T02:52:52;182.97;;;80.13;;
6029;SDS011;3043;42.682;23.376;2022-12-16T02:55:20;188.83;;;80.00;;
6029;SDS011;3043;42.682;23.376;2022-12-16T02:57:56;203.80;;;78.13;;
6029;SDS011;3043;42.682;23.376;2022-12-16T03:00:37;192.77;;;76.97;;
6029;SDS011;3043;42.682;23.376;2022-12-16T03:03:13;180.20;;;79.83;;
6029;SDS011;3043;42.682;23.376;2022-12-16T03:05:47;223.53;;;84.30;;
6029;SDS011;3043;42.682;23.376;2022-12-16T03:08:18;183.97;;;77.23;;
6029;SDS011;3043;42.682;23.376;2022-12-16T03:10:59;230.33;;;86.57;;
6029;SDS011;3043;42.682;23.376;2022-12-16T03:13:28;170.33;;;72.87;;
6029;SDS011;3043;42.682;23.376;2022-12-16T03:15:57;185.00;;;77.13;;
6029;SDS011;3043;42.682;23.376;2022-12-16T03:18:25;176.07;;;75.63;;
6029;SDS011;3043;42.682;23.376;2022-12-16T03:20:53;187.23;;;75.73;;
6029;SDS011;3043;42.682;23.376;2022-12-16T03:23:32;185.93;;;75.77;;
6029;SDS011;3043;42.682;23.376;2022-12-16T03:26:06;234.60;;;86.67;;
6029;SDS011;3043;42.682;23.376;2022-12-16T03:28:39;164.50;;;68.73;;
6029;SDS011;3043;42.682;23.376;2022-12-16T03:36:58;190.57;;;75.33;;
6029;SDS011;3043;42.682;23.376;2022-12-16T03:39:32;189.90;;;70.47;;
6029;SDS011;3043;42.682;23.376;2022-12-16T03:42:02;158.47;;;71.63;;
6029;SDS011;3043;42.682;23.376;2022-12-16T03:44:28;181.10;;;71.00;;
6029;SDS011;3043;42.682;23.376;2022-12-16T03:46:54;146.57;;;70.67;;
6029;SDS011;3043;42.682;23.376;2022-12-16T03:49:20;161.50;;;66.10;;
6029;SDS011;3043;42.682;23.376;2022-12-16T03:51:47;165.13;;;70.73;;
6029;SDS011;3043;42.682;23.376;2022-12-16T03:54:12;156.93;;;66.97;;
6029;SDS011;3043;42.682;23.376;2022-12-16T03:56:38;146.73;;;61.47;;
6029;SDS011;3043;42.682;23.376;2022-12-16T03:59:03;130.47;;;59.10;;
6029;SDS011;3043;42.682;23.376;2022-12-16T04:01:28;148.20;;;62.87;;
6029;SDS011;3043;42.682;23.376;2022-12-16T04:03:54;123.37;;;56.70;;
6029;SDS011;3043;42.682;23.376;2022-12-16T04:06:19;131.57;;;57.80;;
6029;SDS011;3043;42.682;23.376;2022-12-16T04:08:45;127.97;;;59.10;;
6029;SDS011;3043;42.682;23.376;2022-12-16T04:11:12;119.83;;;58.13;;
6029;SDS011;3043;42.682;23.376;2022-12-16T04:13:56;123.27;;;59.30;;
6029;SDS011;3043;42.682;23.376;2022-12-16T04:16:41;115.57;;;54.90;;
6029;SDS011;3043;42.682;23.376;2022-12-16T04:19:26;115.23;;;53.63;;
6029;SDS011;3043;42.682;23.376;2022-12-16T04:22:16;114.30;;;56.33;;
6029;SDS011;3043;42.682;23.376;2022-12-16T04:25:05;116.60;;;57.57;;
6029;SDS011;3043;42.682;23.376;2022-12-16T04:27:33;105.80;;;52.83;;
6029;SDS011;3043;42.682;23.376;2022-12-16T04:29:58;108.10;;;54.33;;
6029;SDS011;3043;42.682;23.376;2022-12-16T04:32:42;106.63;;;54.63;;
6029;SDS011;3043;42.682;23.376;2022-12-16T04:35:26;101.57;;;49.70;;
6029;SDS011;3043;42.682;23.376;2022-12-16T04:38:10;104.13;;;52.50;;
6029;SDS011;3043;42.682;23.376;2022-12-16T04:40:54;98.93;;;50.70;;
6029;SDS011;3043;42.682;23.376;2022-12-16T04:43:38;87.90;;;48.77;;
6029;SDS011;3043;42.682;23.376;2022-12-16T04:46:22;102.17;;;51.03;;
6029;SDS011;3043;42.682;23.376;2022-12-16T04:49:06;97.93;;;49.23;;
6029;SDS011;3043;42.682;23.376;2022-12-16T04:51:50;96.43;;;50.73;;
6029;SDS011;3043;42.682;23.376;2022-12-16T04:54:34;105.43;;;50.17;;
6029;SDS011;3043;42.682;23.376;2022-12-16T04:57:17;118.07;;;61.33;;
6029;SDS011;3043;42.682;23.376;2022-12-16T05:00:02;122.03;;;60.77;;
6029;SDS011;3043;42.682;23.376;2022-12-16T05:02:48;148.50;;;75.47;;
6029;SDS011;3043;42.682;23.376;2022-12-16T05:05:32;163.27;;;83.80;;
6029;SDS011;3043;42.682;23.376;2022-12-16T05:08:16;162.80;;;83.30;;
6029;SDS011;3043;42.682;23.376;2022-12-16T05:11:00;151.10;;;75.87;;
6029;SDS011;3043;42.682;23.376;2022-12-16T05:13:44;160.93;;;86.10;;
6029;SDS011;3043;42.682;23.376;2022-12-16T05:16:28;144.33;;;78.67;;
6029;SDS011;3043;42.682;23.376;2022-12-16T05:19:12;158.73;;;76.93;;
6029;SDS011;3043;42.682;23.376;2022-12-16T05:21:56;150.70;;;80.07;;
6029;SDS011;3043;42.682;23.376;2022-12-16T05:24:40;186.73;;;90.57;;
6029;SDS011;3043;42.682;23.376;2022-12-16T05:27:24;188.10;;;95.33;;
6029;SDS011;3043;42.682;23.376;2022-12-16T05:30:08;180.73;;;96.93;;
6029;SDS011;3043;42.682;23.376;2022-12-16T05:32:52;157.87;;;78.60;;
6029;SDS011;3043;42.682;23.376;2022-12-16T05:35:36;136.20;;;64.60;;
6029;SDS011;3043;42.682;23.376;2022-12-16T05:38:20;140.77;;;67.23;;
6029;SDS011;3043;42.682;23.376;2022-12-16T05:41:04;128.53;;;59.87;;
6029;SDS011;3043;42.682;23.376;2022-12-16T05:43:48;125.33;;;62.10;;
6029;SDS011;3043;42.682;23.376;2022-12-16T05:46:32;117.63;;;55.30;;
6029;SDS011;3043;42.682;23.376;2022-12-16T05:49:26;120.60;;;58.47;;
6029;SDS011;3043;42.682;23.376;2022-12-16T05:52:10;131.60;;;61.13;;
6029;SDS011;3043;42.682;23.376;2022-12-16T05:54:54;128.30;;;59.60;;
6029;SDS011;3043;42.682;23.376;2022-12-16T05:57:38;123.27;;;53.93;;
6029;SDS011;3043;42.682;23.376;2022-12-16T06:00:22;127.23;;;60.07;;
6029;SDS011;3043;42.682;23.376;2022-12-16T06:03:06;134.83;;;56.93;;
6029;SDS011;3043;42.682;23.376;2022-12-16T06:05:50;144.00;;;61.27;;
6029;SDS011;3043;42.682;23.376;2022-12-16T06:08:34;123.20;;;59.60;;
6029;SDS011;3043;42.682;23.376;2022-12-16T06:11:18;127.93;;;59.10;;
6029;SDS011;3043;42.682;23.376;2022-12-16T06:14:02;139.80;;;63.03;;
6029;SDS011;3043;42.682;23.376;2022-12-16T06:16:46;123.07;;;56.80;;
6029;SDS011;3043;42.682;23.376;2022-12-16T06:19:30;128.10;;;57.03;;
6029;SDS011;3043;42.682;23.376;2022-12-16T06:22:14;131.80;;;56.13;;
6029;SDS011;3043;42.682;23.376;2022-12-16T06:24:57;127.27;;;48.77;;
6029;SDS011;3043;42.682;23.376;2022-12-16T06:27:41;94.40;;;48.50;;
6029;SDS011;3043;42.682;23.376;2022-12-16T06:30:25;106.63;;;51.23;;
6029;SDS011;3043;42.682;23.376;2022-12-16T06:33:09;100.03;;;46.53;;
6029;SDS011;3043;42.682;23.376;2022-12-16T06:35:53;100.83;;;47.53;;
6029;SDS011;3043;42.682;23.376;2022-12-16T06:38:37;95.17;;;47.03;;
6029;SDS011;3043;42.682;23.376;2022-12-16T06:41:21;103.83;;;46.97;;
6029;SDS011;3043;42.682;23.376;2022-12-16T06:44:05;90.93;;;44.23;;
6029;SDS011;3043;42.682;23.376;2022-12-16T06:46:49;100.70;;;45.03;;
6029;SDS011;3043;42.682;23.376;2022-12-16T06:49:32;89.53;;;39.57;;
6029;SDS011;3043;42.682;23.376;2022-12-16T06:52:16;77.00;;;38.97;;
6029;SDS011;3043;42.682;23.376;2022-12-16T06:55:00;67.77;;;34.30;;
6029;SDS011;3043;42.682;23.376;2022-12-16T06:57:44;77.10;;;38.47;;
6029;SDS011;3043;42.682;23.376;2022-12-16T07:00:28;75.30;;;35.57;;
6029;SDS011;3043;42.682;23.376;2022-12-16T07:03:12;103.23;;;41.03;;
6029;SDS011;3043;42.682;23.376;2022-12-16T07:05:56;73.77;;;35.50;;
6029;SDS011;3043;42.682;23.376;2022-12-16T07:08:40;81.50;;;38.53;;
6029;SDS011;3043;42.682;23.376;2022-12-16T07:11:23;74.73;;;36.63;;
6029;SDS011;3043;42.682;23.376;2022-12-16T07:14:07;80.10;;;36.67;;
6029;SDS011;3043;42.682;23.376;2022-12-16T07:16:51;90.73;;;40.67;;
6029;SDS011;3043;42.682;23.376;2022-12-16T07:19:35;77.60;;;36.97;;
6029;SDS011;3043;42.682;23.376;2022-12-16T07:22:19;72.33;;;38.63;;
6029;SDS011;3043;42.682;23.376;2022-12-16T07:25:03;72.40;;;35.80;;
6029;SDS011;3043;42.682;23.376;2022-12-16T07:27:47;82.37;;;35.73;;
6029;SDS011;3043;42.682;23.376;2022-12-16T07:30:31;75.17;;;35.33;;
6029;SDS011;3043;42.682;23.376;2022-12-16T07:33:28;74.30;;;37.27;;
6029;SDS011;3043;42.682;23.376;2022-12-16T07:36:12;67.83;;;34.80;;
6029;SDS011;3043;42.682;23.376;2022-12-16T07:38:56;79.03;;;37.90;;
6029;SDS011;3043;42.682;23.376;2022-12-16T07:41:39;73.70;;;36.50;;
6029;SDS011;3043;42.682;23.376;2022-12-16T07:44:23;66.57;;;36.80;;
6029;SDS011;3043;42.682;23.376;2022-12-16T07:47:07;63.23;;;35.50;;
6029;SDS011;3043;42.682;23.376;2022-12-16T07:49:51;63.23;;;35.10;;
6029;SDS011;3043;42.682;23.376;2022-12-16T07:52:35;72.27;;;36.93;;
6029;SDS011;3043;42.682;23.376;2022-12-16T07:55:19;70.37;;;36.43;;
6029;SDS011;3043;42.682;23.376;2022-12-16T07:58:06;66.67;;;36.30;;
6029;SDS011;3043;42.682;23.376;2022-12-16T08:00:51;59.67;;;34.57;;
6029;SDS011;3043;42.682;23.376;2022-12-16T08:03:34;73.40;;;37.73;;
6029;SDS011;3043;42.682;23.376;2022-12-16T08:06:18;69.10;;;38.20;;
6029;SDS011;3043;42.682;23.376;2022-12-16T08:09:02;64.87;;;35.50;;
6029;SDS011;3043;42.682;23.376;2022-12-16T08:11:46;67.40;;;37.67;;
6029;SDS011;3043;42.682;23.376;2022-12-16T08:14:30;69.80;;;37.47;;
6029;SDS011;3043;42.682;23.376;2022-12-16T08:17:14;77.47;;;39.97;;
6029;SDS011;3043;42.682;23.376;2022-12-16T08:19:58;63.43;;;34.83;;
6029;SDS011;3043;42.682;23.376;2022-12-16T08:22:42;69.77;;;40.33;;
6029;SDS011;3043;42.682;23.376;2022-12-16T08:25:26;62.80;;;34.27;;
6029;SDS011;3043;42.682;23.376;2022-12-16T08:28:10;55.87;;;33.50;;
6029;SDS011;3043;42.682;23.376;2022-12-16T08:30:54;67.83;;;38.67;;
6029;SDS011;3043;42.682;23.376;2022-12-16T08:33:38;59.50;;;34.80;;
6029;SDS011;3043;42.682;23.376;2022-12-16T08:36:21;60.03;;;35.27;;
6029;SDS011;3043;42.682;23.376;2022-12-16T08:39:05;51.87;;;32.73;;
6029;SDS011;3043;42.682;23.376;2022-12-16T08:41:49;60.40;;;34.97;;
6029;SDS011;3043;42.682;23.376;2022-12-16T08:44:33;59.90;;;36.50;;
6029;SDS011;3043;42.682;23.376;2022-12-16T08:47:17;56.83;;;35.20;;
6029;SDS011;3043;42.682;23.376;2022-12-16T08:50:01;59.47;;;36.67;;
6029;SDS011;3043;42.682;23.376;2022-12-16T08:52:45;63.50;;;37.60;;
6029;SDS011;3043;42.682;23.376;2022-12-16T08:55:29;75.60;;;41.23;;
6029;SDS011;3043;42.682;23.376;2022-12-16T08:58:12;82.67;;;46.33;;
6029;SDS011;3043;42.682;23.376;2022-12-16T09:00:56;74.47;;;42.80;;
6029;SDS011;3043;42.682;23.376;2022-12-16T09:03:40;70.37;;;40.80;;
6029;SDS011;3043;42.682;23.376;2022-12-16T09:06:24;70.17;;;40.70;;
6029;SDS011;3043;42.682;23.376;2022-12-16T09:09:08;70.27;;;39.10;;
6029;SDS011;3043;42.682;23.376;2022-12-16T09:11:52;69.10;;;38.70;;
6029;SDS011;3043;42.682;23.376;2022-12-16T09:14:37;65.33;;;36.00;;
6029;SDS011;3043;42.682;23.376;2022-12-16T09:17:21;58.80;;;35.90;;
6029;SDS011;3043;42.682;23.376;2022-12-16T09:20:05;76.77;;;41.07;;
6029;SDS011;3043;42.682;23.376;2022-12-16T09:22:49;62.40;;;36.87;;
6029;SDS011;3043;42.682;23.376;2022-12-16T09:25:33;61.33;;;34.83;;
6029;SDS011;3043;42.682;23.376;2022-12-16T09:28:17;62.50;;;36.07;;
6029;SDS011;3043;42.682;23.376;2022-12-16T09:31:01;58.93;;;35.40;;
6029;SDS011;3043;42.682;23.376;2022-12-16T09:33:45;60.30;;;33.77;;
6029;SDS011;3043;42.682;23.376;2022-12-16T09:36:29;61.07;;;34.80;;
6029;SDS011;3043;42.682;23.376;2022-12-16T09:39:13;53.37;;;33.23;;
6029;SDS011;3043;42.682;23.376;2022-12-16T09:48:25;48.37;;;32.97;;
6029;SDS011;3043;42.682;23.376;2022-12-16T09:51:30;47.37;;;30.33;;
6029;SDS011;3043;42.682;23.376;2022-12-16T09:54:15;43.00;;;29.67;;
6029;SDS011;3043;42.682;23.376;2022-12-16T09:57:03;44.10;;;28.47;;
6029;SDS011;3043;42.682;23.376;2022-12-16T09:59:54;40.50;;;28.37;;
6029;SDS011;3043;42.682;23.376;2022-12-16T10:02:43;43.23;;;29.20;;
6029;SDS011;3043;42.682;23.376;2022-12-16T10:05:34;45.03;;;30.53;;
6029;SDS011;3043;42.682;23.376;2022-12-16T10:08:45;46.77;;;31.30;;
6029;SDS011;3043;42.682;23.376;2022-12-16T10:14:50;45.03;;;31.00;;
6029;SDS011;3043;42.682;23.376;2022-12-16T10:17:58;45.30;;;32.00;;
6029;SDS011;3043;42.682;23.376;2022-12-16T10:20:47;49.90;;;35.03;;
6029;SDS011;3043;42.682;23.376;2022-12-16T10:23:53;45.13;;;30.53;;
6029;SDS011;3043;42.682;23.376;2022-12-16T10:26:49;46.70;;;32.90;;
6029;SDS011;3043;42.682;23.376;2022-12-16T10:29:37;53.30;;;31.87;;
6029;SDS011;3043;42.682;23.376;2022-12-16T10:32:26;46.63;;;32.47;;
6029;SDS011;3043;42.682;23.376;2022-12-16T10:35:22;44.50;;;32.60;;
6029;SDS011;3043;42.682;23.376;2022-12-16T10:38:17;48.27;;;31.83;;
6029;SDS011;3043;42.682;23.376;2022-12-16T10:41:17;45.13;;;32.13;;
6029;SDS011;3043;42.682;23.376;2022-12-16T10:44:02;48.20;;;34.80;;
6029;SDS011;3043;42.682;23.376;2022-12-16T10:46:54;48.63;;;34.07;;
6029;SDS011;3043;42.682;23.376;2022-12-16T10:49:37;49.97;;;34.60;;
6029;SDS011;3043;42.682;23.376;2022-12-16T10:52:21;51.17;;;35.63;;
6029;SDS011;3043;42.682;23.376;2022-12-16T10:55:27;56.30;;;38.23;;
6029;SDS011;3043;42.682;23.376;2022-12-16T10:58:38;52.10;;;37.67;;
6029;SDS011;3043;42.682;23.376;2022-12-16T11:01:29;50.20;;;35.83;;
6029;SDS011;3043;42.682;23.376;2022-12-16T11:07:28;40.43;;;30.67;;
6029;SDS011;3043;42.682;23.376;2022-12-16T11:10:29;41.77;;;30.80;;
6029;SDS011;3043;42.682;23.376;2022-12-16T11:13:19;44.70;;;32.27;;
6029;SDS011;3043;42.682;23.376;2022-12-16T11:16:14;37.70;;;27.17;;
6029;SDS011;3043;42.682;23.376;2022-12-16T11:19:18;38.00;;;28.70;;
6029;SDS011;3043;42.682;23.376;2022-12-16T11:22:09;33.93;;;25.57;;
6029;SDS011;3043;42.682;23.376;2022-12-16T11:28:00;35.23;;;26.27;;
6029;SDS011;3043;42.682;23.376;2022-12-16T11:31:11;34.37;;;24.23;;
6029;SDS011;3043;42.682;23.376;2022-12-16T11:33:58;34.10;;;25.43;;
6029;SDS011;3043;42.682;23.376;2022-12-16T11:36:44;32.40;;;24.97;;
6029;SDS011;3043;42.682;23.376;2022-12-16T11:39:30;35.97;;;24.70;;
6029;SDS011;3043;42.682;23.376;2022-12-16T11:42:20;32.87;;;24.33;;
6029;SDS011;3043;42.682;23.376;2022-12-16T11:45:12;34.17;;;24.50;;
6029;SDS011;3043;42.682;23.376;2022-12-16T11:48:06;35.40;;;25.67;;
6029;SDS011;3043;42.682;23.376;2022-12-16T11:50:59;32.67;;;23.97;;
6029;SDS011;3043;42.682;23.376;2022-12-16T11:57:38;35.87;;;24.53;;
6029;SDS011;3043;42.682;23.376;2022-12-16T12:00:52;33.10;;;25.27;;
6029;SDS011;3043;42.682;23.376;2022-12-16T12:03:42;36.93;;;26.30;;
6029;SDS011;3043;42.682;23.376;2022-12-16T12:06:31;36.97;;;25.30;;
6029;SDS011;3043;42.682;23.376;2022-12-16T12:09:36;34.87;;;25.67;;
6029;SDS011;3043;42.682;23.376;2022-12-16T12:15:34;40.67;;;27.33;;
6029;SDS011;3043;42.682;23.376;2022-12-16T12:18:33;41.70;;;28.23;;
6029;SDS011;3043;42.682;23.376;2022-12-16T12:21:25;36.23;;;24.70;;
6029;SDS011;3043;42.682;23.376;2022-12-16T12:30:15;37.50;;;25.23;;
6029;SDS011;3043;42.682;23.376;2022-12-16T12:33:47;34.90;;;25.63;;
6029;SDS011;3043;42.682;23.376;2022-12-16T12:37:03;33.77;;;24.63;;
6029;SDS011;3043;42.682;23.376;2022-12-16T12:39:37;39.07;;;25.17;;
6029;SDS011;3043;42.682;23.376;2022-12-16T12:42:48;38.40;;;24.17;;
6029;SDS011;3043;42.682;23.376;2022-12-16T12:48:51;39.63;;;25.17;;
6029;SDS011;3043;42.682;23.376;2022-12-16T12:55:21;35.03;;;23.80;;
6029;SDS011;3043;42.682;23.376;2022-12-16T12:58:11;39.17;;;24.97;;
6029;SDS011;3043;42.682;23.376;2022-12-16T13:00:58;35.10;;;25.00;;
6029;SDS011;3043;42.682;23.376;2022-12-16T13:03:49;36.23;;;25.23;;
6029;SDS011;3043;42.682;23.376;2022-12-16T13:06:38;35.80;;;24.90;;
6029;SDS011;3043;42.682;23.376;2022-12-16T13:09:32;38.67;;;25.53;;
6029;SDS011;3043;42.682;23.376;2022-12-16T13:12:19;35.70;;;25.37;;
6029;SDS011;3043;42.682;23.376;2022-12-16T13:15:10;42.00;;;25.90;;
6029;SDS011;3043;42.682;23.376;2022-12-16T13:23:39;34.73;;;23.73;;
6029;SDS011;3043;42.682;23.376;2022-12-16T13:26:25;35.70;;;24.57;;
6029;SDS011;3043;42.682;23.376;2022-12-16T13:41:04;42.00;;;24.57;;
6029;SDS011;3043;42.682;23.376;2022-12-16T13:44:09;33.37;;;23.93;;
6029;SDS011;3043;42.682;23.376;2022-12-16T13:46:54;40.90;;;25.23;;
6029;SDS011;3043;42.682;23.376;2022-12-16T13:49:46;38.20;;;24.47;;
6029;SDS011;3043;42.682;23.376;2022-12-16T13:52:50;42.23;;;25.40;;
6029;SDS011;3043;42.682;23.376;2022-12-16T13:55:53;44.27;;;28.80;;
6029;SDS011;3043;42.682;23.376;2022-12-16T13:58:40;40.70;;;27.03;;
6029;SDS011;3043;42.682;23.376;2022-12-16T14:01:35;44.50;;;29.13;;
6029;SDS011;3043;42.682;23.376;2022-12-16T14:04:25;48.53;;;32.23;;
6029;SDS011;3043;42.682;23.376;2022-12-16T14:07:15;38.07;;;26.77;;
6029;SDS011;3043;42.682;23.376;2022-12-16T14:10:00;41.13;;;27.90;;
6029;SDS011;3043;42.682;23.376;2022-12-16T14:15:58;43.53;;;29.23;;
6029;SDS011;3043;42.682;23.376;2022-12-16T14:19:02;37.67;;;27.43;;
6029;SDS011;3043;42.682;23.376;2022-12-16T14:21:52;35.83;;;24.20;;
6029;SDS011;3043;42.682;23.376;2022-12-16T14:24:47;35.67;;;25.00;;
6029;SDS011;3043;42.682;23.376;2022-12-16T14:27:31;41.87;;;25.20;;
6029;SDS011;3043;42.682;23.376;2022-12-16T14:33:16;31.70;;;20.30;;
6029;SDS011;3043;42.682;23.376;2022-12-16T14:36:23;37.07;;;23.60;;
6029;SDS011;3043;42.682;23.376;2022-12-16T14:39:19;26.87;;;18.00;;
6029;SDS011;3043;42.682;23.376;2022-12-16T14:42:38;32.77;;;21.53;;
6029;SDS011;3043;42.682;23.376;2022-12-16T14:45:25;26.00;;;17.17;;
6029;SDS011;3043;42.682;23.376;2022-12-16T14:48:13;34.73;;;21.43;;
6029;SDS011;3043;42.682;23.376;2022-12-16T14:51:13;30.40;;;19.13;;
6029;SDS011;3043;42.682;23.376;2022-12-16T14:54:28;24.03;;;17.00;;
6029;SDS011;3043;42.682;23.376;2022-12-16T14:57:19;32.70;;;20.43;;
6029;SDS011;3043;42.682;23.376;2022-12-16T15:03:21;28.27;;;17.87;;
6029;SDS011;3043;42.682;23.376;2022-12-16T15:06:28;33.40;;;18.53;;
6029;SDS011;3043;42.682;23.376;2022-12-16T15:12:30;26.67;;;18.10;;
6029;SDS011;3043;42.682;23.376;2022-12-16T15:15:18;41.60;;;26.00;;
6029;SDS011;3043;42.682;23.376;2022-12-16T15:18:30;21.60;;;15.67;;
6029;SDS011;3043;42.682;23.376;2022-12-16T15:21:16;27.37;;;18.37;;
6029;SDS011;3043;42.682;23.376;2022-12-16T15:24:00;31.83;;;20.20;;
6029;SDS011;3043;42.682;23.376;2022-12-16T15:26:44;28.00;;;17.07;;
6029;SDS011;3043;42.682;23.376;2022-12-16T15:29:33;29.27;;;19.07;;
6029;SDS011;3043;42.682;23.376;2022-12-16T15:35:07;27.77;;;16.63;;
6029;SDS011;3043;42.682;23.376;2022-12-16T15:40:59;27.13;;;18.03;;
6029;SDS011;3043;42.682;23.376;2022-12-16T15:43:46;29.80;;;19.17;;
6029;SDS011;3043;42.682;23.376;2022-12-16T15:46:31;30.10;;;19.23;;
6029;SDS011;3043;42.682;23.376;2022-12-16T15:49:20;16.00;;;9.87;;
6029;SDS011;3043;42.682;23.376;2022-12-16T15:52:21;23.40;;;12.80;;
6029;SDS011;3043;42.682;23.376;2022-12-16T15:55:20;16.20;;;9.10;;
6029;SDS011;3043;42.682;23.376;2022-12-16T15:58:11;19.10;;;10.73;;
6029;SDS011;3043;42.682;23.376;2022-12-16T16:00:56;19.87;;;10.20;;
6029;SDS011;3043;42.682;23.376;2022-12-16T16:03:46;14.17;;;8.53;;
6029;SDS011;3043;42.682;23.376;2022-12-16T16:06:32;16.53;;;10.67;;
6029;SDS011;3043;42.682;23.376;2022-12-16T16:09:21;14.00;;;8.90;;
6029;SDS011;3043;42.682;23.376;2022-12-16T16:12:10;15.63;;;10.90;;
6029;SDS011;3043;42.682;23.376;2022-12-16T16:14:55;15.43;;;8.53;;
6029;SDS011;3043;42.682;23.376;2022-12-16T16:17:39;25.17;;;15.00;;
6029;SDS011;3043;42.682;23.376;2022-12-16T16:20:23;13.80;;;8.53;;
6029;SDS011;3043;42.682;23.376;2022-12-16T16:23:07;14.83;;;8.43;;
6029;SDS011;3043;42.682;23.376;2022-12-16T16:25:52;15.43;;;8.07;;
6029;SDS011;3043;42.682;23.376;2022-12-16T16:28:36;13.63;;;8.13;;
6029;SDS011;3043;42.682;23.376;2022-12-16T16:31:20;14.53;;;8.33;;
6029;SDS011;3043;42.682;23.376;2022-12-16T16:34:04;13.90;;;8.53;;
6029;SDS011;3043;42.682;23.376;2022-12-16T16:36:49;16.47;;;9.60;;
6029;SDS011;3043;42.682;23.376;2022-12-16T16:39:36;13.63;;;9.17;;
6029;SDS011;3043;42.682;23.376;2022-12-16T16:42:20;13.53;;;7.97;;
6029;SDS011;3043;42.682;23.376;2022-12-16T16:45:04;15.93;;;9.17;;
6029;SDS011;3043;42.682;23.376;2022-12-16T16:47:48;15.87;;;9.87;;
6029;SDS011;3043;42.682;23.376;2022-12-16T16:50:42;20.03;;;11.27;;
6029;SDS011;3043;42.682;23.376;2022-12-16T16:53:26;21.50;;;11.73;;
6029;SDS011;3043;42.682;23.376;2022-12-16T16:56:10;15.87;;;10.97;;
6029;SDS011;3043;42.682;23.376;2022-12-16T16:58:54;15.73;;;10.53;;
6029;SDS011;3043;42.682;23.376;2022-12-16T17:01:38;17.77;;;11.50;;
6029;SDS011;3043;42.682;23.376;2022-12-16T17:04:22;15.57;;;10.80;;
6029;SDS011;3043;42.682;23.376;2022-12-16T17:07:06;17.30;;;10.17;;
6029;SDS011;3043;42.682;23.376;2022-12-16T17:09:50;19.43;;;11.50;;
6029;SDS011;3043;42.682;23.376;2022-12-16T17:12:34;17.80;;;11.83;;
6029;SDS011;3043;42.682;23.376;2022-12-16T17:15:19;19.80;;;12.00;;
6029;SDS011;3043;42.682;23.376;2022-12-16T17:18:06;18.17;;;9.73;;
6029;SDS011;3043;42.682;23.376;2022-12-16T17:20:51;16.90;;;9.23;;
6029;SDS011;3043;42.682;23.376;2022-12-16T17:23:35;14.33;;;9.10;;
6029;SDS011;3043;42.682;23.376;2022-12-16T17:26:20;18.37;;;10.60;;
6029;SDS011;3043;42.682;23.376;2022-12-16T17:29:04;15.07;;;8.57;;
6029;SDS011;3043;42.682;23.376;2022-12-16T17:31:48;16.03;;;8.90;;
6029;SDS011;3043;42.682;23.376;2022-12-16T17:34:32;15.30;;;8.63;;
6029;SDS011;3043;42.682;23.376;2022-12-16T17:37:16;14.80;;;8.73;;
6029;SDS011;3043;42.682;23.376;2022-12-16T17:40:00;15.13;;;9.07;;
6029;SDS011;3043;42.682;23.376;2022-12-16T17:42:44;16.53;;;10.80;;
6029;SDS011;3043;42.682;23.376;2022-12-16T17:45:28;13.63;;;8.17;;
6029;SDS011;3043;42.682;23.376;2022-12-16T17:48:12;12.80;;;8.67;;